DRZA/AJY METAR and TAF weather

Enter ICAO airport designator
Station Type Date Time Source
DRZA METAR 2021/05/14 07:00 UTC NOAA

DRZA 140700Z 27004KT CAVOK 31/12 Q1011


Station Type Date Time Source
DRZA Decoded METAR 2021/05/14 07:00 UTC NOAA

Agadez, Niger (DRZA) 16-58N 007-59E 502M
May 14, 2021 - 03:00 AM EDT / 2021.05.14 0700 UTC
Wind: from the W (270 degrees) at 5 MPH (4 KT):0
Visibility: greater than 7 mile(s):0
Temperature: 87 F (31 C)
Dew Point: 53 F (12 C)
Relative Humidity: 31%
Pressure (altimeter): 29.85 in. Hg (1011 hPa)
ob: DRZA 140700Z 27004KT CAVOK 31/12 Q1011
cycle: 7

Station Type Date Time Source
DRZA TAF 2021/05/14 06:23 UTC NOAA

TAF DRZA 140500Z 1406/1506 12010KT CAVOK
TEMPO 1408/1412 24010KT

Example: see airport list